sensor_id;sensor_type;location;lat;lon;timestamp;P1;durP1;ratioP1;P2;durP2;ratioP2
43327;SDS011;28923;45.412;10.852;2024-02-04T00:01:46;13.63;;;10.48;;
43327;SDS011;28923;45.412;10.852;2024-02-04T00:04:12;14.48;;;10.98;;
43327;SDS011;28923;45.412;10.852;2024-02-04T00:06:37;11.70;;;9.85;;
43327;SDS011;28923;45.412;10.852;2024-02-04T00:09:03;13.20;;;9.90;;
43327;SDS011;28923;45.412;10.852;2024-02-04T00:11:31;12.70;;;9.93;;
43327;SDS011;28923;45.412;10.852;2024-02-04T00:13:57;12.18;;;9.98;;
43327;SDS011;28923;45.412;10.852;2024-02-04T00:16:22;12.05;;;9.52;;
43327;SDS011;28923;45.412;10.852;2024-02-04T00:18:48;11.27;;;10.07;;
43327;SDS011;28923;45.412;10.852;2024-02-04T00:21:13;12.82;;;9.77;;
43327;SDS011;28923;45.412;10.852;2024-02-04T00:23:39;11.50;;;10.25;;
43327;SDS011;28923;45.412;10.852;2024-02-04T00:26:04;13.02;;;10.32;;
43327;SDS011;28923;45.412;10.852;2024-02-04T00:28:30;13.02;;;9.93;;
43327;SDS011;28923;45.412;10.852;2024-02-04T00:30:55;10.65;;;9.27;;
43327;SDS011;28923;45.412;10.852;2024-02-04T00:33:23;11.25;;;9.77;;
43327;SDS011;28923;45.412;10.852;2024-02-04T00:35:48;11.00;;;9.82;;
43327;SDS011;28923;45.412;10.852;2024-02-04T00:38:13;12.35;;;10.02;;
43327;SDS011;28923;45.412;10.852;2024-02-04T00:40:39;12.57;;;9.93;;
43327;SDS011;28923;45.412;10.852;2024-02-04T00:43:04;12.48;;;10.45;;
43327;SDS011;28923;45.412;10.852;2024-02-04T00:45:30;12.57;;;10.25;;
43327;SDS011;28923;45.412;10.852;2024-02-04T00:47:56;11.82;;;10.18;;
43327;SDS011;28923;45.412;10.852;2024-02-04T00:50:21;12.23;;;9.68;;
43327;SDS011;28923;45.412;10.852;2024-02-04T00:52:47;12.82;;;9.75;;
43327;SDS011;28923;45.412;10.852;2024-02-04T00:55:12;12.75;;;9.80;;
43327;SDS011;28923;45.412;10.852;2024-02-04T00:57:38;13.52;;;10.40;;
43327;SDS011;28923;45.412;10.852;2024-02-04T01:00:03;11.88;;;10.25;;
43327;SDS011;28923;45.412;10.852;2024-02-04T01:02:29;11.98;;;10.02;;
43327;SDS011;28923;45.412;10.852;2024-02-04T01:04:55;10.55;;;9.15;;
43327;SDS011;28923;45.412;10.852;2024-02-04T01:07:21;12.98;;;10.07;;
43327;SDS011;28923;45.412;10.852;2024-02-04T01:09:46;11.40;;;9.48;;
43327;SDS011;28923;45.412;10.852;2024-02-04T01:12:12;18.63;;;10.60;;
43327;SDS011;28923;45.412;10.852;2024-02-04T01:14:37;11.63;;;9.85;;
43327;SDS011;28923;45.412;10.852;2024-02-04T01:17:03;11.00;;;9.60;;
43327;SDS011;28923;45.412;10.852;2024-02-04T01:19:28;11.13;;;9.50;;
43327;SDS011;28923;45.412;10.852;2024-02-04T01:21:54;11.13;;;9.45;;
43327;SDS011;28923;45.412;10.852;2024-02-04T01:24:19;12.35;;;9.77;;
43327;SDS011;28923;45.412;10.852;2024-02-04T01:26:45;10.95;;;9.38;;
43327;SDS011;28923;45.412;10.852;2024-02-04T01:29:10;11.48;;;9.88;;
43327;SDS011;28923;45.412;10.852;2024-02-04T01:31:35;11.98;;;9.80;;
43327;SDS011;28923;45.412;10.852;2024-02-04T01:34:01;10.75;;;9.02;;
43327;SDS011;28923;45.412;10.852;2024-02-04T01:36:26;10.90;;;9.10;;
43327;SDS011;28923;45.412;10.852;2024-02-04T01:38:51;10.38;;;8.85;;
43327;SDS011;28923;45.412;10.852;2024-02-04T01:41:17;11.80;;;9.93;;
43327;SDS011;28923;45.412;10.852;2024-02-04T01:43:43;11.00;;;9.07;;
43327;SDS011;28923;45.412;10.852;2024-02-04T01:46:08;10.40;;;8.80;;
43327;SDS011;28923;45.412;10.852;2024-02-04T01:48:34;10.82;;;9.00;;
43327;SDS011;28923;45.412;10.852;2024-02-04T01:51:00;9.85;;;8.85;;
43327;SDS011;28923;45.412;10.852;2024-02-04T01:53:26;10.77;;;8.75;;
43327;SDS011;28923;45.412;10.852;2024-02-04T01:55:53;12.68;;;9.25;;
43327;SDS011;28923;45.412;10.852;2024-02-04T01:58:20;10.43;;;8.65;;
43327;SDS011;28923;45.412;10.852;2024-02-04T02:00:45;11.48;;;9.40;;
43327;SDS011;28923;45.412;10.852;2024-02-04T02:03:11;11.02;;;8.57;;
43327;SDS011;28923;45.412;10.852;2024-02-04T02:05:37;10.25;;;8.80;;
43327;SDS011;28923;45.412;10.852;2024-02-04T02:08:04;10.18;;;9.05;;
43327;SDS011;28923;45.412;10.852;2024-02-04T02:10:31;9.68;;;8.68;;
43327;SDS011;28923;45.412;10.852;2024-02-04T02:12:58;11.32;;;9.27;;
43327;SDS011;28923;45.412;10.852;2024-02-04T02:15:25;13.27;;;9.50;;
43327;SDS011;28923;45.412;10.852;2024-02-04T02:17:54;11.38;;;8.95;;
43327;SDS011;28923;45.412;10.852;2024-02-04T02:20:23;11.68;;;8.98;;
43327;SDS011;28923;45.412;10.852;2024-02-04T02:25:26;10.70;;;9.30;;
43327;SDS011;28923;45.412;10.852;2024-02-04T02:27:52;10.07;;;8.65;;
43327;SDS011;28923;45.412;10.852;2024-02-04T02:30:18;10.13;;;8.98;;
43327;SDS011;28923;45.412;10.852;2024-02-04T02:32:44;11.02;;;8.07;;
43327;SDS011;28923;45.412;10.852;2024-02-04T02:35:11;10.40;;;9.27;;
43327;SDS011;28923;45.412;10.852;2024-02-04T02:37:39;10.35;;;9.23;;
43327;SDS011;28923;45.412;10.852;2024-02-04T02:42:41;10.93;;;9.18;;
43327;SDS011;28923;45.412;10.852;2024-02-04T02:45:07;10.40;;;8.93;;
43327;SDS011;28923;45.412;10.852;2024-02-04T02:47:33;11.40;;;8.88;;
43327;SDS011;28923;45.412;10.852;2024-02-04T02:50:00;10.10;;;8.98;;
43327;SDS011;28923;45.412;10.852;2024-02-04T02:52:25;10.70;;;8.90;;
43327;SDS011;28923;45.412;10.852;2024-02-04T02:54:50;9.00;;;8.07;;
43327;SDS011;28923;45.412;10.852;2024-02-04T02:57:16;9.57;;;8.25;;
43327;SDS011;28923;45.412;10.852;2024-02-04T02:59:42;9.50;;;8.50;;
43327;SDS011;28923;45.412;10.852;2024-02-04T03:02:07;10.15;;;8.85;;
43327;SDS011;28923;45.412;10.852;2024-02-04T03:04:33;9.45;;;8.45;;
43327;SDS011;28923;45.412;10.852;2024-02-04T03:06:59;9.75;;;8.75;;
43327;SDS011;28923;45.412;10.852;2024-02-04T03:09:24;9.85;;;8.63;;
43327;SDS011;28923;45.412;10.852;2024-02-04T03:11:50;9.05;;;8.15;;
43327;SDS011;28923;45.412;10.852;2024-02-04T03:14:15;11.70;;;8.65;;
43327;SDS011;28923;45.412;10.852;2024-02-04T03:16:43;9.40;;;8.40;;
43327;SDS011;28923;45.412;10.852;2024-02-04T03:19:09;10.32;;;8.82;;
43327;SDS011;28923;45.412;10.852;2024-02-04T03:21:35;10.73;;;8.75;;
43327;SDS011;28923;45.412;10.852;2024-02-04T03:24:01;10.07;;;8.80;;
43327;SDS011;28923;45.412;10.852;2024-02-04T03:26:26;11.25;;;8.88;;
43327;SDS011;28923;45.412;10.852;2024-02-04T03:28:52;11.25;;;9.50;;
43327;SDS011;28923;45.412;10.852;2024-02-04T03:31:21;10.00;;;8.93;;
43327;SDS011;28923;45.412;10.852;2024-02-04T03:33:47;10.73;;;9.52;;
43327;SDS011;28923;45.412;10.852;2024-02-04T03:36:15;10.70;;;8.70;;
43327;SDS011;28923;45.412;10.852;2024-02-04T03:38:41;9.60;;;8.57;;
43327;SDS011;28923;45.412;10.852;2024-02-04T03:41:07;10.90;;;9.45;;
43327;SDS011;28923;45.412;10.852;2024-02-04T03:43:32;10.63;;;8.93;;
43327;SDS011;28923;45.412;10.852;2024-02-04T03:45:57;10.13;;;8.95;;
43327;SDS011;28923;45.412;10.852;2024-02-04T03:48:23;9.95;;;8.95;;
43327;SDS011;28923;45.412;10.852;2024-02-04T03:50:48;11.13;;;9.68;;
43327;SDS011;28923;45.412;10.852;2024-02-04T03:53:14;10.82;;;9.43;;
43327;SDS011;28923;45.412;10.852;2024-02-04T03:55:40;10.20;;;8.63;;
43327;SDS011;28923;45.412;10.852;2024-02-04T03:58:05;10.38;;;9.25;;
43327;SDS011;28923;45.412;10.852;2024-02-04T04:00:31;10.65;;;8.63;;
43327;SDS011;28923;45.412;10.852;2024-02-04T04:02:56;11.38;;;9.63;;
43327;SDS011;28923;45.412;10.852;2024-02-04T04:05:22;10.07;;;9.05;;
43327;SDS011;28923;45.412;10.852;2024-02-04T04:07:47;10.75;;;9.05;;
43327;SDS011;28923;45.412;10.852;2024-02-04T04:10:13;11.50;;;9.32;;
43327;SDS011;28923;45.412;10.852;2024-02-04T04:12:38;11.60;;;9.75;;
43327;SDS011;28923;45.412;10.852;2024-02-04T04:15:03;10.95;;;9.80;;
43327;SDS011;28923;45.412;10.852;2024-02-04T04:17:30;11.50;;;9.80;;
43327;SDS011;28923;45.412;10.852;2024-02-04T04:19:55;11.93;;;9.63;;
43327;SDS011;28923;45.412;10.852;2024-02-04T04:22:20;11.20;;;9.48;;
43327;SDS011;28923;45.412;10.852;2024-02-04T04:24:46;11.27;;;9.82;;
43327;SDS011;28923;45.412;10.852;2024-02-04T04:27:11;12.15;;;10.02;;
43327;SDS011;28923;45.412;10.852;2024-02-04T04:29:37;11.85;;;10.00;;
43327;SDS011;28923;45.412;10.852;2024-02-04T04:32:02;12.98;;;9.68;;
43327;SDS011;28923;45.412;10.852;2024-02-04T04:34:28;11.65;;;10.25;;
43327;SDS011;28923;45.412;10.852;2024-02-04T04:36:53;13.05;;;10.35;;
43327;SDS011;28923;45.412;10.852;2024-02-04T04:39:19;10.82;;;9.60;;
43327;SDS011;28923;45.412;10.852;2024-02-04T04:41:44;11.82;;;9.85;;
43327;SDS011;28923;45.412;10.852;2024-02-04T04:44:10;11.88;;;9.43;;
43327;SDS011;28923;45.412;10.852;2024-02-04T04:46:39;11.35;;;9.35;;
43327;SDS011;28923;45.412;10.852;2024-02-04T04:49:04;11.43;;;10.23;;
43327;SDS011;28923;45.412;10.852;2024-02-04T04:51:30;12.02;;;10.23;;
43327;SDS011;28923;45.412;10.852;2024-02-04T04:53:55;12.00;;;10.00;;
43327;SDS011;28923;45.412;10.852;2024-02-04T04:56:21;12.82;;;10.50;;
43327;SDS011;28923;45.412;10.852;2024-02-04T04:58:46;11.35;;;10.02;;
43327;SDS011;28923;45.412;10.852;2024-02-04T05:01:12;12.07;;;10.00;;
43327;SDS011;28923;45.412;10.852;2024-02-04T05:03:37;11.30;;;10.05;;
43327;SDS011;28923;45.412;10.852;2024-02-04T05:06:03;12.68;;;10.25;;
43327;SDS011;28923;45.412;10.852;2024-02-04T05:08:28;12.38;;;10.60;;
43327;SDS011;28923;45.412;10.852;2024-02-04T05:10:54;12.23;;;10.68;;
43327;SDS011;28923;45.412;10.852;2024-02-04T05:13:19;12.45;;;10.63;;
43327;SDS011;28923;45.412;10.852;2024-02-04T05:15:45;14.38;;;11.25;;
43327;SDS011;28923;45.412;10.852;2024-02-04T05:18:10;12.63;;;10.38;;
43327;SDS011;28923;45.412;10.852;2024-02-04T05:20:35;13.40;;;10.57;;
43327;SDS011;28923;45.412;10.852;2024-02-04T05:23:01;11.38;;;9.95;;
43327;SDS011;28923;45.412;10.852;2024-02-04T05:25:27;12.80;;;11.00;;
43327;SDS011;28923;45.412;10.852;2024-02-04T05:27:52;12.10;;;10.68;;
43327;SDS011;28923;45.412;10.852;2024-02-04T05:30:18;11.45;;;10.25;;
43327;SDS011;28923;45.412;10.852;2024-02-04T05:32:44;11.88;;;10.40;;
43327;SDS011;28923;45.412;10.852;2024-02-04T05:35:10;13.45;;;11.07;;
43327;SDS011;28923;45.412;10.852;2024-02-04T05:37:35;13.05;;;10.95;;
43327;SDS011;28923;45.412;10.852;2024-02-04T05:40:01;12.95;;;10.60;;
43327;SDS011;28923;45.412;10.852;2024-02-04T05:42:27;11.93;;;10.73;;
43327;SDS011;28923;45.412;10.852;2024-02-04T05:44:52;13.00;;;11.23;;
43327;SDS011;28923;45.412;10.852;2024-02-04T05:47:18;11.90;;;10.60;;
43327;SDS011;28923;45.412;10.852;2024-02-04T05:49:43;12.10;;;10.57;;
43327;SDS011;28923;45.412;10.852;2024-02-04T05:52:09;13.65;;;11.55;;
43327;SDS011;28923;45.412;10.852;2024-02-04T05:54:38;12.77;;;11.35;;
43327;SDS011;28923;45.412;10.852;2024-02-04T05:57:06;13.60;;;10.85;;
43327;SDS011;28923;45.412;10.852;2024-02-04T05:59:32;11.45;;;10.25;;
43327;SDS011;28923;45.412;10.852;2024-02-04T06:01:57;11.93;;;10.60;;
43327;SDS011;28923;45.412;10.852;2024-02-04T06:04:23;11.98;;;10.68;;
43327;SDS011;28923;45.412;10.852;2024-02-04T06:06:49;13.57;;;11.77;;
43327;SDS011;28923;45.412;10.852;2024-02-04T06:09:14;12.60;;;11.15;;
43327;SDS011;28923;45.412;10.852;2024-02-04T06:11:40;12.50;;;11.20;;
43327;SDS011;28923;45.412;10.852;2024-02-04T06:14:05;12.75;;;11.10;;
43327;SDS011;28923;45.412;10.852;2024-02-04T06:16:31;12.48;;;11.10;;
43327;SDS011;28923;45.412;10.852;2024-02-04T06:18:59;11.98;;;10.68;;
43327;SDS011;28923;45.412;10.852;2024-02-04T06:21:25;11.85;;;10.48;;
43327;SDS011;28923;45.412;10.852;2024-02-04T06:23:50;12.50;;;10.63;;
43327;SDS011;28923;45.412;10.852;2024-02-04T06:26:15;13.70;;;11.35;;
43327;SDS011;28923;45.412;10.852;2024-02-04T06:28:41;12.18;;;10.25;;
43327;SDS011;28923;45.412;10.852;2024-02-04T06:31:10;12.32;;;10.77;;
43327;SDS011;28923;45.412;10.852;2024-02-04T06:33:36;12.07;;;10.35;;
43327;SDS011;28923;45.412;10.852;2024-02-04T06:36:01;12.70;;;10.65;;
43327;SDS011;28923;45.412;10.852;2024-02-04T06:38:26;12.52;;;11.02;;
43327;SDS011;28923;45.412;10.852;2024-02-04T06:40:52;11.57;;;9.98;;
43327;SDS011;28923;45.412;10.852;2024-02-04T06:43:17;12.13;;;10.82;;
43327;SDS011;28923;45.412;10.852;2024-02-04T06:45:43;12.27;;;10.98;;
43327;SDS011;28923;45.412;10.852;2024-02-04T06:48:08;13.02;;;10.68;;
43327;SDS011;28923;45.412;10.852;2024-02-04T06:50:35;14.68;;;11.00;;
43327;SDS011;28923;45.412;10.852;2024-02-04T06:53:00;11.38;;;9.82;;
43327;SDS011;28923;45.412;10.852;2024-02-04T06:55:26;12.75;;;10.43;;
43327;SDS011;28923;45.412;10.852;2024-02-04T06:57:51;12.75;;;11.10;;
43327;SDS011;28923;45.412;10.852;2024-02-04T07:00:16;12.43;;;10.45;;
43327;SDS011;28923;45.412;10.852;2024-02-04T07:02:42;13.77;;;10.73;;
43327;SDS011;28923;45.412;10.852;2024-02-04T07:05:07;14.50;;;10.48;;
43327;SDS011;28923;45.412;10.852;2024-02-04T07:07:33;13.48;;;10.82;;
43327;SDS011;28923;45.412;10.852;2024-02-04T07:09:59;13.73;;;10.98;;
43327;SDS011;28923;45.412;10.852;2024-02-04T07:12:24;14.90;;;10.90;;
43327;SDS011;28923;45.412;10.852;2024-02-04T07:14:49;15.45;;;10.73;;
43327;SDS011;28923;45.412;10.852;2024-02-04T07:17:15;13.50;;;10.30;;
43327;SDS011;28923;45.412;10.852;2024-02-04T07:19:40;15.10;;;10.55;;
43327;SDS011;28923;45.412;10.852;2024-02-04T07:22:06;12.95;;;10.63;;
43327;SDS011;28923;45.412;10.852;2024-02-04T07:24:32;13.60;;;10.93;;
43327;SDS011;28923;45.412;10.852;2024-02-04T07:26:58;14.68;;;10.70;;
43327;SDS011;28923;45.412;10.852;2024-02-04T07:29:23;14.38;;;10.68;;
43327;SDS011;28923;45.412;10.852;2024-02-04T07:31:48;14.60;;;11.05;;
43327;SDS011;28923;45.412;10.852;2024-02-04T07:34:14;15.13;;;10.00;;
43327;SDS011;28923;45.412;10.852;2024-02-04T07:36:39;15.00;;;10.55;;
43327;SDS011;28923;45.412;10.852;2024-02-04T07:39:05;15.20;;;10.95;;
43327;SDS011;28923;45.412;10.852;2024-02-04T07:41:31;13.73;;;10.38;;
43327;SDS011;28923;45.412;10.852;2024-02-04T07:43:56;16.10;;;10.88;;
43327;SDS011;28923;45.412;10.852;2024-02-04T07:46:22;15.55;;;10.65;;
43327;SDS011;28923;45.412;10.852;2024-02-04T07:48:47;16.40;;;9.90;;
43327;SDS011;28923;45.412;10.852;2024-02-04T07:51:13;13.02;;;9.52;;
43327;SDS011;28923;45.412;10.852;2024-02-04T07:53:38;13.30;;;9.63;;
43327;SDS011;28923;45.412;10.852;2024-02-04T07:56:04;13.18;;;10.00;;
43327;SDS011;28923;45.412;10.852;2024-02-04T07:58:32;16.17;;;10.40;;
43327;SDS011;28923;45.412;10.852;2024-02-04T08:00:57;22.42;;;10.68;;
43327;SDS011;28923;45.412;10.852;2024-02-04T08:03:22;12.32;;;10.05;;
43327;SDS011;28923;45.412;10.852;2024-02-04T08:05:48;13.80;;;9.68;;
43327;SDS011;28923;45.412;10.852;2024-02-04T08:22:01;11.00;;;8.57;;
43327;SDS011;28923;45.412;10.852;2024-02-04T08:24:26;11.07;;;8.82;;
43327;SDS011;28923;45.412;10.852;2024-02-04T08:26:55;14.35;;;9.05;;
43327;SDS011;28923;45.412;10.852;2024-02-04T08:29:21;14.48;;;9.50;;
43327;SDS011;28923;45.412;10.852;2024-02-04T08:31:46;18.50;;;9.68;;
43327;SDS011;28923;45.412;10.852;2024-02-04T08:34:12;19.05;;;9.88;;
43327;SDS011;28923;45.412;10.852;2024-02-04T08:36:38;14.98;;;10.55;;
43327;SDS011;28923;45.412;10.852;2024-02-04T08:39:03;15.75;;;9.82;;
43327;SDS011;28923;45.412;10.852;2024-02-04T08:41:29;11.75;;;9.80;;
43327;SDS011;28923;45.412;10.852;2024-02-04T08:43:54;12.55;;;10.07;;
43327;SDS011;28923;45.412;10.852;2024-02-04T08:46:26;13.68;;;10.48;;
43327;SDS011;28923;45.412;10.852;2024-02-04T08:48:56;12.88;;;9.57;;
43327;SDS011;28923;45.412;10.852;2024-02-04T08:51:21;11.32;;;9.13;;
43327;SDS011;28923;45.412;10.852;2024-02-04T08:53:47;13.10;;;9.82;;
43327;SDS011;28923;45.412;10.852;2024-02-04T08:56:13;11.20;;;9.52;;
43327;SDS011;28923;45.412;10.852;2024-02-04T08:58:39;14.88;;;10.43;;
43327;SDS011;28923;45.412;10.852;2024-02-04T09:01:25;16.55;;;10.10;;
43327;SDS011;28923;45.412;10.852;2024-02-04T09:03:50;13.98;;;10.35;;
43327;SDS011;28923;45.412;10.852;2024-02-04T09:06:16;15.23;;;10.55;;
43327;SDS011;28923;45.412;10.852;2024-02-04T09:08:41;18.60;;;10.50;;
43327;SDS011;28923;45.412;10.852;2024-02-04T09:11:09;12.30;;;10.10;;
43327;SDS011;28923;45.412;10.852;2024-02-04T09:13:35;15.32;;;9.88;;
43327;SDS011;28923;45.412;10.852;2024-02-04T09:16:00;16.67;;;10.35;;
43327;SDS011;28923;45.412;10.852;2024-02-04T09:18:26;14.65;;;10.70;;
43327;SDS011;28923;45.412;10.852;2024-02-04T09:20:52;13.55;;;10.18;;
43327;SDS011;28923;45.412;10.852;2024-02-04T09:23:21;12.77;;;10.18;;
43327;SDS011;28923;45.412;10.852;2024-02-04T09:25:46;16.35;;;10.32;;
43327;SDS011;28923;45.412;10.852;2024-02-04T09:28:12;12.95;;;10.02;;
43327;SDS011;28923;45.412;10.852;2024-02-04T09:30:38;14.85;;;11.00;;
43327;SDS011;28923;45.412;10.852;2024-02-04T09:33:04;15.77;;;11.07;;
43327;SDS011;28923;45.412;10.852;2024-02-04T09:35:30;17.88;;;10.93;;
43327;SDS011;28923;45.412;10.852;2024-02-04T09:37:55;15.77;;;11.10;;
43327;SDS011;28923;45.412;10.852;2024-02-04T09:40:21;14.90;;;10.88;;
43327;SDS011;28923;45.412;10.852;2024-02-04T09:42:47;14.25;;;11.45;;
43327;SDS011;28923;45.412;10.852;2024-02-04T09:45:13;17.73;;;11.45;;
43327;SDS011;28923;45.412;10.852;2024-02-04T09:47:45;16.17;;;12.27;;
43327;SDS011;28923;45.412;10.852;2024-02-04T09:50:15;15.35;;;11.32;;
43327;SDS011;28923;45.412;10.852;2024-02-04T09:52:41;18.73;;;12.05;;
43327;SDS011;28923;45.412;10.852;2024-02-04T09:55:12;14.85;;;11.85;;
43327;SDS011;28923;45.412;10.852;2024-02-04T09:57:38;16.48;;;12.27;;
43327;SDS011;28923;45.412;10.852;2024-02-04T10:00:06;15.70;;;12.70;;
43327;SDS011;28923;45.412;10.852;2024-02-04T10:02:41;16.80;;;11.75;;
43327;SDS011;28923;45.412;10.852;2024-02-04T10:05:10;16.90;;;12.80;;
43327;SDS011;28923;45.412;10.852;2024-02-04T10:07:36;15.70;;;12.02;;
43327;SDS011;28923;45.412;10.852;2024-02-04T10:10:05;14.90;;;12.43;;
43327;SDS011;28923;45.412;10.852;2024-02-04T10:12:32;16.00;;;12.10;;
43327;SDS011;28923;45.412;10.852;2024-02-04T10:15:00;17.70;;;12.45;;
43327;SDS011;28923;45.412;10.852;2024-02-04T10:17:26;14.52;;;11.63;;
43327;SDS011;28923;45.412;10.852;2024-02-04T10:19:52;15.43;;;12.18;;
43327;SDS011;28923;45.412;10.852;2024-02-04T10:22:17;18.73;;;12.60;;
43327;SDS011;28923;45.412;10.852;2024-02-04T10:24:43;14.90;;;12.35;;
43327;SDS011;28923;45.412;10.852;2024-02-04T10:27:12;15.52;;;11.95;;
43327;SDS011;28923;45.412;10.852;2024-02-04T10:29:38;15.75;;;12.90;;
43327;SDS011;28923;45.412;10.852;2024-02-04T10:32:03;15.05;;;11.73;;
43327;SDS011;28923;45.412;10.852;2024-02-04T10:34:32;16.30;;;12.35;;
43327;SDS011;28923;45.412;10.852;2024-02-04T10:37:04;16.13;;;12.32;;
43327;SDS011;28923;45.412;10.852;2024-02-04T10:39:33;13.95;;;11.45;;
43327;SDS011;28923;45.412;10.852;2024-02-04T10:42:01;15.65;;;12.15;;
43327;SDS011;28923;45.412;10.852;2024-02-04T10:44:28;13.93;;;11.77;;
43327;SDS011;28923;45.412;10.852;2024-02-04T10:46:54;12.75;;;11.27;;
43327;SDS011;28923;45.412;10.852;2024-02-04T10:49:19;14.45;;;11.73;;
43327;SDS011;28923;45.412;10.852;2024-02-04T10:51:45;14.65;;;12.02;;
43327;SDS011;28923;45.412;10.852;2024-02-04T10:54:14;14.13;;;11.18;;
43327;SDS011;28923;45.412;10.852;2024-02-04T10:56:42;15.18;;;12.18;;
43327;SDS011;28923;45.412;10.852;2024-02-04T10:59:08;14.82;;;11.88;;
43327;SDS011;28923;45.412;10.852;2024-02-04T11:01:35;15.90;;;12.35;;
43327;SDS011;28923;45.412;10.852;2024-02-04T11:04:01;15.38;;;12.45;;
43327;SDS011;28923;45.412;10.852;2024-02-04T11:06:30;16.30;;;12.63;;
43327;SDS011;28923;45.412;10.852;2024-02-04T11:09:00;15.40;;;12.82;;
43327;SDS011;28923;45.412;10.852;2024-02-04T11:11:32;15.10;;;13.00;;
43327;SDS011;28923;45.412;10.852;2024-02-04T11:13:59;17.20;;;13.15;;
43327;SDS011;28923;45.412;10.852;2024-02-04T11:19:22;15.80;;;12.63;;
43327;SDS011;28923;45.412;10.852;2024-02-04T11:27:25;15.13;;;12.68;;
43327;SDS011;28923;45.412;10.852;2024-02-04T11:29:53;18.63;;;13.00;;
43327;SDS011;28923;45.412;10.852;2024-02-04T11:32:19;17.73;;;13.70;;
43327;SDS011;28923;45.412;10.852;2024-02-04T11:34:44;17.88;;;13.52;;
43327;SDS011;28923;45.412;10.852;2024-02-04T11:37:16;16.48;;;13.40;;
43327;SDS011;28923;45.412;10.852;2024-02-04T11:39:53;18.48;;;14.07;;
43327;SDS011;28923;45.412;10.852;2024-02-04T11:42:19;15.50;;;13.43;;
43327;SDS011;28923;45.412;10.852;2024-02-04T11:44:46;16.33;;;14.10;;
43327;SDS011;28923;45.412;10.852;2024-02-04T11:47:11;16.30;;;13.98;;
43327;SDS011;28923;45.412;10.852;2024-02-04T11:49:53;17.02;;;14.07;;
43327;SDS011;28923;45.412;10.852;2024-02-04T11:52:18;16.92;;;13.90;;
43327;SDS011;28923;45.412;10.852;2024-02-04T11:54:44;15.68;;;13.90;;
43327;SDS011;28923;45.412;10.852;2024-02-04T11:57:10;15.57;;;13.68;;
43327;SDS011;28923;45.412;10.852;2024-02-04T11:59:35;16.75;;;13.68;;
43327;SDS011;28923;45.412;10.852;2024-02-04T12:02:05;16.42;;;13.43;;
43327;SDS011;28923;45.412;10.852;2024-02-04T12:04:31;16.90;;;13.80;;
43327;SDS011;28923;45.412;10.852;2024-02-04T12:06:57;16.85;;;13.80;;
43327;SDS011;28923;45.412;10.852;2024-02-04T12:09:23;16.15;;;13.88;;
43327;SDS011;28923;45.412;10.852;2024-02-04T12:11:49;17.17;;;14.30;;
43327;SDS011;28923;45.412;10.852;2024-02-04T12:14:15;16.70;;;14.15;;
43327;SDS011;28923;45.412;10.852;2024-02-04T12:16:40;16.70;;;13.45;;
43327;SDS011;28923;45.412;10.852;2024-02-04T12:19:06;17.60;;;13.73;;
43327;SDS011;28923;45.412;10.852;2024-02-04T12:21:32;16.52;;;14.10;;
43327;SDS011;28923;45.412;10.852;2024-02-04T12:23:58;16.40;;;13.30;;
43327;SDS011;28923;45.412;10.852;2024-02-04T12:26:24;16.42;;;14.38;;
43327;SDS011;28923;45.412;10.852;2024-02-04T12:28:52;17.77;;;14.38;;
43327;SDS011;28923;45.412;10.852;2024-02-04T12:31:18;16.83;;;13.82;;
43327;SDS011;28923;45.412;10.852;2024-02-04T12:33:54;17.23;;;14.60;;
43327;SDS011;28923;45.412;10.852;2024-02-04T12:36:20;15.70;;;13.27;;
43327;SDS011;28923;45.412;10.852;2024-02-04T12:38:52;15.90;;;12.98;;
43327;SDS011;28923;45.412;10.852;2024-02-04T12:41:18;17.13;;;13.57;;
43327;SDS011;28923;45.412;10.852;2024-02-04T12:43:48;15.00;;;13.38;;
43327;SDS011;28923;45.412;10.852;2024-02-04T12:46:14;16.38;;;13.95;;
43327;SDS011;28923;45.412;10.852;2024-02-04T12:48:39;17.70;;;13.98;;
43327;SDS011;28923;45.412;10.852;2024-02-04T12:51:05;15.85;;;13.57;;
43327;SDS011;28923;45.412;10.852;2024-02-04T12:53:30;15.75;;;13.23;;
43327;SDS011;28923;45.412;10.852;2024-02-04T12:55:58;17.50;;;13.90;;
43327;SDS011;28923;45.412;10.852;2024-02-04T12:58:25;18.70;;;14.48;;
43327;SDS011;28923;45.412;10.852;2024-02-04T13:00:59;16.27;;;13.82;;
43327;SDS011;28923;45.412;10.852;2024-02-04T13:03:24;16.05;;;13.73;;
43327;SDS011;28923;45.412;10.852;2024-02-04T13:05:50;16.10;;;13.38;;
43327;SDS011;28923;45.412;10.852;2024-02-04T13:08:18;15.63;;;13.80;;
43327;SDS011;28923;45.412;10.852;2024-02-04T13:10:43;15.50;;;13.18;;
43327;SDS011;28923;45.412;10.852;2024-02-04T13:13:11;15.48;;;13.25;;
43327;SDS011;28923;45.412;10.852;2024-02-04T13:15:39;18.38;;;14.65;;
43327;SDS011;28923;45.412;10.852;2024-02-04T13:18:05;17.73;;;13.93;;
43327;SDS011;28923;45.412;10.852;2024-02-04T13:20:31;16.92;;;13.63;;
43327;SDS011;28923;45.412;10.852;2024-02-04T13:22:56;20.20;;;14.57;;
43327;SDS011;28923;45.412;10.852;2024-02-04T13:25:23;18.88;;;13.52;;
43327;SDS011;28923;45.412;10.852;2024-02-04T13:27:48;17.42;;;13.43;;
43327;SDS011;28923;45.412;10.852;2024-02-04T13:30:15;16.85;;;13.88;;
43327;SDS011;28923;45.412;10.852;2024-02-04T13:32:41;21.20;;;14.25;;
43327;SDS011;28923;45.412;10.852;2024-02-04T13:35:07;19.08;;;14.10;;
43327;SDS011;28923;45.412;10.852;2024-02-04T13:37:36;18.60;;;14.48;;
43327;SDS011;28923;45.412;10.852;2024-02-04T13:40:02;19.05;;;14.65;;
43327;SDS011;28923;45.412;10.852;2024-02-04T13:42:28;17.92;;;13.85;;
43327;SDS011;28923;45.412;10.852;2024-02-04T13:44:54;17.08;;;14.00;;
43327;SDS011;28923;45.412;10.852;2024-02-04T13:47:19;17.77;;;14.40;;
43327;SDS011;28923;45.412;10.852;2024-02-04T13:49:45;19.05;;;14.43;;
43327;SDS011;28923;45.412;10.852;2024-02-04T13:52:11;17.23;;;14.23;;
43327;SDS011;28923;45.412;10.852;2024-02-04T13:54:36;17.33;;;14.43;;
43327;SDS011;28923;45.412;10.852;2024-02-04T13:57:02;16.52;;;14.02;;
43327;SDS011;28923;45.412;10.852;2024-02-04T13:59:27;18.77;;;13.65;;
43327;SDS011;28923;45.412;10.852;2024-02-04T14:01:53;17.92;;;13.70;;
43327;SDS011;28923;45.412;10.852;2024-02-04T14:04:19;18.10;;;13.50;;
43327;SDS011;28923;45.412;10.852;2024-02-04T14:06:44;17.23;;;13.13;;
43327;SDS011;28923;45.412;10.852;2024-02-04T14:09:10;16.40;;;13.63;;
43327;SDS011;28923;45.412;10.852;2024-02-04T14:11:38;17.85;;;13.30;;
43327;SDS011;28923;45.412;10.852;2024-02-04T14:14:03;16.38;;;13.23;;
43327;SDS011;28923;45.412;10.852;2024-02-04T14:16:29;15.63;;;13.82;;
43327;SDS011;28923;45.412;10.852;2024-02-04T14:18:54;20.33;;;14.05;;
43327;SDS011;28923;45.412;10.852;2024-02-04T14:21:20;21.90;;;14.50;;
43327;SDS011;28923;45.412;10.852;2024-02-04T14:23:45;17.75;;;14.00;;
43327;SDS011;28923;45.412;10.852;2024-02-04T14:26:20;19.20;;;13.82;;
43327;SDS011;28923;45.412;10.852;2024-02-04T14:28:45;20.38;;;14.65;;
43327;SDS011;28923;45.412;10.852;2024-02-04T14:31:11;17.27;;;14.15;;
43327;SDS011;28923;45.412;10.852;2024-02-04T14:33:38;20.08;;;14.85;;
43327;SDS011;28923;45.412;10.852;2024-02-04T14:36:05;20.13;;;15.15;;